Time;durP1;ratioP1;P1;durP2;ratioP2;P2;SDS_P1;SDS_P2;PMS_P1;PMS_P2;Temp;Humidity;BMP_temperature;BMP_pressure;BME280_temperature;BME280_humidity;BME280_pressure;Samples;Min_cycle;Max_cycle;Signal;HPM_P1;HPM_P2
2023/03/29 00:01:06;;;;;;;;;;;5.10;1.00;;;;;;5002480;28;20454;-65
2023/03/29 00:03:32;;;;;;;;;;;5.10;1.00;;;;;;5029998;28;19921;-64
2023/03/29 00:06:01;;;;;;;;;;;4.90;1.00;;;;;;5022273;28;19921;-65
2023/03/29 00:08:28;;;;;;;;;;;4.90;1.00;;;;;;5023697;28;19968;-64
2023/03/29 00:10:55;;;;;;;;;;;5.10;1.00;;;;;;5021724;28;19925;-63
2023/03/29 00:13:21;;;;;;;;;;;4.90;1.00;;;;;;5026624;28;19917;-64
2023/03/29 00:15:46;;;;;;;;;;;4.90;1.00;;;;;;5026703;28;20165;-64
2023/03/29 00:18:12;;;;;;;;;;;5.10;1.00;;;;;;4993566;28;20310;-65
2023/03/29 00:20:37;;;;;;;;;;;4.90;1.00;;;;;;5028557;28;19928;-64
2023/03/29 00:23:03;;;;;;;;;;;4.90;1.00;;;;;;5026869;28;20511;-63
2023/03/29 00:25:29;;;;;;;;;;;5.10;1.00;;;;;;5027445;28;19924;-65
2023/03/29 00:27:54;;;;;;;;;;;4.80;1.00;;;;;;5023805;28;20264;-63
2023/03/29 00:30:20;;;;;;;;;;;5.00;1.00;;;;;;5007187;28;19940;-66
2023/03/29 00:32:45;;;;;;;;;;;5.10;1.00;;;;;;5018468;28;20019;-66
2023/03/29 00:35:11;;;;;;;;;;;5.00;1.00;;;;;;5020323;28;19974;-66
2023/03/29 00:37:37;;;;;;;;;;;4.80;1.00;;;;;;5023786;28;20012;-66
2023/03/29 00:40:07;;;;;;;;;;;4.90;1.00;;;;;;5003491;28;20026;-66
2023/03/29 00:42:32;;;;;;;;;;;5.00;1.00;;;;;;5032069;28;19973;-65
2023/03/29 00:45:15;;;;;;;;;;;4.90;1.00;;;;;;5020776;28;20672;-65
2023/03/29 00:47:42;;;;;;;;;;;5.10;1.00;;;;;;5005411;28;20346;-65
2023/03/29 00:50:31;;;;;;;;;;;5.00;1.00;;;;;;5022052;28;20083;-65
2023/03/29 00:52:56;;;;;;;;;;;4.80;5.70;;;;;;5019533;28;20047;-66
2023/03/29 00:55:23;;;;;;;;;;;5.00;1.00;;;;;;5016554;28;20286;-66
2023/03/29 00:57:51;;;;;;;;;;;5.00;1.00;;;;;;5016854;28;19956;-66
2023/03/29 01:00:19;;;;;;;;;;;4.80;1.00;;;;;;5002739;28;19921;-66
2023/03/29 01:02:49;;;;;;;;;;;5.00;19.40;;;;;;5025362;28;19968;-66
2023/03/29 01:05:18;;;;;;;;;;;4.90;1.00;;;;;;5022831;28;19920;-65
2023/03/29 01:08:05;;;;;;;;;;;4.80;1.00;;;;;;5016892;28;19999;-66
2023/03/29 01:10:36;;;;;;;;;;;4.90;1.00;;;;;;5023479;28;19979;-66
2023/03/29 01:13:05;;;;;;;;;;;5.10;22.20;;;;;;5031187;28;19921;-65
2023/03/29 01:15:31;;;;;;;;;;;4.90;1.00;;;;;;5018158;28;20039;-65
2023/03/29 01:18:00;;;;;;;;;;;4.80;1.00;;;;;;4985184;28;19929;-66
2023/03/29 01:20:29;;;;;;;;;;;4.90;1.00;;;;;;5002413;28;20221;-65
2023/03/29 01:23:15;;;;;;;;;;;5.00;1.00;;;;;;5021780;28;19920;-65
2023/03/29 01:25:54;;;;;;;;;;;4.80;1.00;;;;;;5020027;28;20365;-65
2023/03/29 01:28:21;;;;;;;;;;;4.80;1.00;;;;;;5017678;28;20015;-65
2023/03/29 01:30:50;;;;;;;;;;;5.00;1.00;;;;;;5019433;28;19931;-64
2023/03/29 01:33:24;;;;;;;;;;;5.00;1.00;;;;;;5020027;28;19932;-65
2023/03/29 01:35:56;;;;;;;;;;;4.90;1.00;;;;;;5021657;28;20272;-65
2023/03/29 01:38:27;;;;;;;;;;;5.10;1.00;;;;;;5021435;28;19929;-65
2023/03/29 01:40:52;;;;;;;;;;;5.20;1.00;;;;;;4999449;28;19927;-65
2023/03/29 01:43:35;;;;;;;;;;;5.10;1.00;;;;;;5021543;28;20350;-65
2023/03/29 01:46:06;;;;;;;;;;;4.90;1.00;;;;;;5038531;28;19929;-65
2023/03/29 01:48:50;;;;;;;;;;;5.00;1.00;;;;;;5022644;28;19921;-65
2023/03/29 01:51:18;;;;;;;;;;;5.00;1.00;;;;;;5019769;28;20303;-66
2023/03/29 01:54:02;;;;;;;;;;;5.10;1.00;;;;;;5047460;28;19932;-65
2023/03/29 01:56:29;;;;;;;;;;;4.90;1.00;;;;;;5016297;28;19979;-65
2023/03/29 01:58:58;;;;;;;;;;;4.90;1.00;;;;;;5022569;28;19916;-65
2023/03/29 02:01:26;;;;;;;;;;;4.90;1.00;;;;;;5021837;28;20320;-65
2023/03/29 02:03:53;;;;;;;;;;;5.20;1.00;;;;;;5018405;28;19975;-65
2023/03/29 02:06:21;;;;;;;;;;;5.10;4.90;;;;;;5000143;28;19925;-66
2023/03/29 02:08:46;;;;;;;;;;;5.00;1.00;;;;;;5022133;28;19925;-64
2023/03/29 02:11:12;;;;;;;;;;;5.10;6.90;;;;;;5019282;28;19927;-65
2023/03/29 02:13:38;;;;;;;;;;;4.90;12.40;;;;;;5020399;28;20397;-65
2023/03/29 02:16:08;;;;;;;;;;;5.10;6.10;;;;;;5024833;28;19924;-65
2023/03/29 02:18:34;;;;;;;;;;;5.10;23.00;;;;;;5024445;28;20326;-64
2023/03/29 02:20:59;;;;;;;;;;;5.10;30.20;;;;;;5022858;28;19925;-64
2023/03/29 02:23:39;;;;;;;;;;;5.20;27.80;;;;;;5027551;28;19967;-65
2023/03/29 02:26:05;;;;;;;;;;;5.00;44.80;;;;;;5007844;28;19928;-65
2023/03/29 02:28:32;;;;;;;;;;;4.90;16.60;;;;;;5008718;28;19925;-64
2023/03/29 02:31:04;;;;;;;;;;;5.20;11.20;;;;;;5035388;28;19920;-64
2023/03/29 02:33:32;;;;;;;;;;;5.10;40.90;;;;;;5019711;28;19925;-64
2023/03/29 02:36:19;;;;;;;;;;;5.20;16.90;;;;;;5059648;28;19921;-64
2023/03/29 02:38:45;;;;;;;;;;;5.20;1.00;;;;;;5053461;28;20298;-65
2023/03/29 02:41:11;;;;;;;;;;;5.20;8.10;;;;;;5023605;28;20247;-65
2023/03/29 02:43:38;;;;;;;;;;;4.90;61.10;;;;;;5027394;28;19968;-64
2023/03/29 02:46:05;;;;;;;;;;;5.00;90.40;;;;;;5021312;28;19925;-64
2023/03/29 02:48:31;;;;;;;;;;;4.90;36.60;;;;;;5021521;28;20008;-66
2023/03/29 02:50:59;;;;;;;;;;;5.00;20.50;;;;;;5022629;28;20245;-65
2023/03/29 02:53:33;;;;;;;;;;;5.00;12.20;;;;;;5005519;28;19921;-65
2023/03/29 02:56:01;;;;;;;;;;;4.90;23.20;;;;;;5004127;28;20347;-65
2023/03/29 02:58:27;;;;;;;;;;;5.10;28.80;;;;;;5060685;28;19936;-65
2023/03/29 03:00:54;;;;;;;;;;;5.00;70.80;;;;;;5008844;28;19927;-64
2023/03/29 03:03:20;;;;;;;;;;;5.10;44.90;;;;;;5023729;28;20594;-65
2023/03/29 03:05:46;;;;;;;;;;;5.00;55.70;;;;;;5022019;28;19928;-65
2023/03/29 03:08:12;;;;;;;;;;;5.00;99.90;;;;;;5025028;28;19920;-65
2023/03/29 03:10:38;;;;;;;;;;;4.90;50.00;;;;;;5022108;28;19974;-65
2023/03/29 03:13:04;;;;;;;;;;;5.30;60.90;;;;;;5059345;28;19928;-66
2023/03/29 03:15:31;;;;;;;;;;;5.00;99.90;;;;;;5019009;28;20118;-65
2023/03/29 03:17:57;;;;;;;;;;;5.20;71.30;;;;;;4999356;28;19925;-65
2023/03/29 03:20:22;;;;;;;;;;;5.20;93.30;;;;;;5021331;28;19927;-65
2023/03/29 03:22:48;;;;;;;;;;;5.00;99.90;;;;;;5021821;28;20406;-65
2023/03/29 03:25:15;;;;;;;;;;;5.20;99.90;;;;;;5019428;28;19925;-65
2023/03/29 03:27:41;;;;;;;;;;;5.10;96.50;;;;;;5002346;28;19960;-65
2023/03/29 03:30:07;;;;;;;;;;;5.20;30.70;;;;;;5001156;28;19925;-65
2023/03/29 03:32:33;;;;;;;;;;;5.00;38.20;;;;;;5022799;28;19993;-65
2023/03/29 03:34:59;;;;;;;;;;;5.20;1.00;;;;;;5048261;28;19924;-65
2023/03/29 03:37:26;;;;;;;;;;;5.00;64.40;;;;;;5020904;28;19925;-65
2023/03/29 03:39:52;;;;;;;;;;;5.30;54.80;;;;;;5021597;28;19928;-65
2023/03/29 03:42:18;;;;;;;;;;;5.20;99.90;;;;;;5020971;28;20003;-65
2023/03/29 03:44:43;;;;;;;;;;;5.20;93.00;;;;;;5018440;28;19916;-65
2023/03/29 03:47:09;;;;;;;;;;;5.00;72.50;;;;;;5015036;28;20449;-65
2023/03/29 03:49:35;;;;;;;;;;;5.30;94.80;;;;;;5023421;28;19976;-65
2023/03/29 03:52:01;;;;;;;;;;;5.00;94.70;;;;;;5021291;28;19921;-65
2023/03/29 03:54:26;;;;;;;;;;;5.10;94.50;;;;;;5003184;28;20570;-66
2023/03/29 03:56:52;;;;;;;;;;;5.30;74.90;;;;;;5019434;28;19932;-65
2023/03/29 03:59:18;;;;;;;;;;;5.20;1.00;;;;;;5021180;28;20606;-65
2023/03/29 04:01:44;;;;;;;;;;;5.30;73.90;;;;;;5024078;28;19928;-65
2023/03/29 04:04:10;;;;;;;;;;;5.10;92.50;;;;;;5023171;28;20019;-65
2023/03/29 04:06:36;;;;;;;;;;;5.20;99.90;;;;;;5022570;28;19920;-65
2023/03/29 04:09:02;;;;;;;;;;;5.10;21.30;;;;;;5017709;28;19925;-65
2023/03/29 04:11:28;;;;;;;;;;;5.20;39.80;;;;;;5022916;28;19924;-64
2023/03/29 04:13:54;;;;;;;;;;;5.40;24.00;;;;;;5022881;28;20326;-64
2023/03/29 04:16:19;;;;;;;;;;;5.30;55.00;;;;;;5019328;28;19925;-65
2023/03/29 04:18:45;;;;;;;;;;;5.40;28.70;;;;;;5018662;28;19917;-66
2023/03/29 04:21:11;;;;;;;;;;;5.20;1.00;;;;;;5023766;28;20059;-65
2023/03/29 04:23:37;;;;;;;;;;;5.40;1.00;;;;;;5006820;28;20016;-65
2023/03/29 04:26:02;;;;;;;;;;;5.10;1.00;;;;;;5018580;28;19925;-64
2023/03/29 04:28:28;;;;;;;;;;;5.30;9.90;;;;;;5023100;28;19920;-65
2023/03/29 04:30:54;;;;;;;;;;;5.20;1.00;;;;;;5023186;28;19928;-65
2023/03/29 04:33:20;;;;;;;;;;;5.10;1.00;;;;;;5002982;28;19980;-64
2023/03/29 04:35:45;;;;;;;;;;;5.10;1.00;;;;;;5020702;28;19971;-65
2023/03/29 04:38:11;;;;;;;;;;;5.30;1.00;;;;;;5025055;28;19965;-63
2023/03/29 04:40:37;;;;;;;;;;;5.10;1.00;;;;;;5005770;28;19921;-65
2023/03/29 04:43:03;;;;;;;;;;;5.20;1.00;;;;;;5020569;28;19921;-65
2023/03/29 04:45:28;;;;;;;;;;;5.10;1.00;;;;;;5023225;28;20529;-65
2023/03/29 04:48:00;;;;;;;;;;;5.30;1.00;;;;;;5021532;28;19932;-64
2023/03/29 04:50:26;;;;;;;;;;;5.30;1.00;;;;;;5020046;28;19929;-64
2023/03/29 04:52:51;;;;;;;;;;;5.20;1.00;;;;;;5018722;28;19943;-64
2023/03/29 04:55:17;;;;;;;;;;;5.40;1.00;;;;;;5049785;28;20011;-64
2023/03/29 04:57:45;;;;;;;;;;;5.30;1.00;;;;;;5009024;28;19928;-65
2023/03/29 05:00:14;;;;;;;;;;;5.30;1.00;;;;;;5052023;28;19920;-65
2023/03/29 05:02:41;;;;;;;;;;;5.20;1.00;;;;;;5037755;28;20003;-64
2023/03/29 05:05:07;;;;;;;;;;;5.40;1.00;;;;;;5035992;28;19920;-64
2023/03/29 05:07:33;;;;;;;;;;;5.30;1.00;;;;;;5020845;28;20694;-65
2023/03/29 05:09:58;;;;;;;;;;;5.30;22.60;;;;;;5017808;28;20314;-65
2023/03/29 05:12:24;;;;;;;;;;;5.20;1.00;;;;;;5018373;28;20188;-64
2023/03/29 05:14:50;;;;;;;;;;;5.40;1.00;;;;;;5019418;28;20319;-65
2023/03/29 05:17:15;;;;;;;;;;;5.50;6.70;;;;;;5024352;28;20298;-64
2023/03/29 05:19:42;;;;;;;;;;;5.30;1.10;;;;;;5024421;28;19947;-66
2023/03/29 05:22:08;;;;;;;;;;;5.30;1.00;;;;;;5020027;28;19921;-64
2023/03/29 05:24:34;;;;;;;;;;;5.50;1.00;;;;;;5018055;28;19971;-64
2023/03/29 05:26:59;;;;;;;;;;;5.60;29.90;;;;;;5028611;28;19925;-65
2023/03/29 05:29:25;;;;;;;;;;;5.40;13.10;;;;;;5026193;28;19929;-65
2023/03/29 05:31:51;;;;;;;;;;;5.50;41.50;;;;;;5020443;28;19921;-64
2023/03/29 05:34:17;;;;;;;;;;;5.50;27.40;;;;;;5021295;28;20429;-64
2023/03/29 05:36:44;;;;;;;;;;;5.30;43.60;;;;;;5023027;28;19997;-65
2023/03/29 05:39:10;;;;;;;;;;;5.50;40.40;;;;;;5025135;28;20172;-65
2023/03/29 05:41:36;;;;;;;;;;;5.60;82.30;;;;;;5030903;28;19960;-64
2023/03/29 05:44:01;;;;;;;;;;;5.60;76.00;;;;;;5020515;28;20590;-64
2023/03/29 05:46:27;;;;;;;;;;;5.50;55.20;;;;;;5024320;28;19920;-64
2023/03/29 05:48:53;;;;;;;;;;;5.30;74.60;;;;;;5022784;28;20439;-64
2023/03/29 05:51:22;;;;;;;;;;;5.40;50.50;;;;;;5025777;28;19964;-65
2023/03/29 05:53:48;;;;;;;;;;;5.40;68.90;;;;;;5026127;28;20432;-63
2023/03/29 05:56:15;;;;;;;;;;;5.60;99.90;;;;;;5028108;28;19920;-64
2023/03/29 05:58:41;;;;;;;;;;;5.40;87.80;;;;;;5026030;28;20333;-63
2023/03/29 06:01:10;;;;;;;;;;;5.40;99.90;;;;;;5025539;28;20012;-63
2023/03/29 06:03:37;;;;;;;;;;;5.50;99.90;;;;;;5027958;28;19920;-63
2023/03/29 06:06:03;;;;;;;;;;;5.40;99.90;;;;;;5024962;28;19976;-64
2023/03/29 06:08:29;;;;;;;;;;;5.40;99.90;;;;;;5007407;28;20489;-63
2023/03/29 06:11:01;;;;;;;;;;;5.70;99.90;;;;;;5027225;28;19986;-64
2023/03/29 06:13:27;;;;;;;;;;;5.70;99.90;;;;;;5049164;28;19921;-64
2023/03/29 06:15:53;;;;;;;;;;;5.70;99.90;;;;;;5022422;28;20359;-63
2023/03/29 06:18:19;;;;;;;;;;;5.70;99.90;;;;;;5022324;28;19971;-64
2023/03/29 06:20:49;;;;;;;;;;;5.80;99.90;;;;;;5023172;28;20123;-64
2023/03/29 06:23:15;;;;;;;;;;;5.70;99.90;;;;;;5026633;28;19944;-64
2023/03/29 06:25:41;;;;;;;;;;;5.90;99.90;;;;;;5007962;28;20164;-64
2023/03/29 06:28:07;;;;;;;;;;;5.80;99.90;;;;;;5025062;28;19920;-65
2023/03/29 06:30:33;;;;;;;;;;;5.80;99.90;;;;;;5025822;28;19925;-64
2023/03/29 06:32:59;;;;;;;;;;;5.90;99.90;;;;;;5028291;28;20439;-64
2023/03/29 06:35:25;;;;;;;;;;;5.60;99.90;;;;;;5023627;28;20808;-64
2023/03/29 06:37:52;;;;;;;;;;;5.70;99.90;;;;;;5029585;28;20058;-65
2023/03/29 06:40:19;;;;;;;;;;;5.90;99.90;;;;;;5022157;28;20009;-64
2023/03/29 06:42:49;;;;;;;;;;;5.80;99.90;;;;;;5026898;28;20366;-64
2023/03/29 06:45:15;;;;;;;;;;;5.60;99.90;;;;;;5005431;28;20532;-65
2023/03/29 06:47:41;;;;;;;;;;;5.90;99.90;;;;;;5009586;28;19921;-65
2023/03/29 06:50:07;;;;;;;;;;;5.90;99.90;;;;;;4987658;28;20339;-65
2023/03/29 06:52:32;;;;;;;;;;;5.90;99.90;;;;;;5024464;28;20024;-64
2023/03/29 06:55:00;;;;;;;;;;;6.10;99.90;;;;;;5024541;28;19962;-64
2023/03/29 06:57:26;;;;;;;;;;;6.10;99.90;;;;;;5020709;28;19925;-65
2023/03/29 06:59:52;;;;;;;;;;;6.10;99.90;;;;;;5009039;28;20186;-64
2023/03/29 07:02:18;;;;;;;;;;;6.10;99.90;;;;;;5019812;28;19952;-65
2023/03/29 07:04:44;;;;;;;;;;;6.00;99.90;;;;;;5024497;28;20475;-65
2023/03/29 07:07:18;;;;;;;;;;;6.30;99.90;;;;;;5023107;28;19984;-65
2023/03/29 07:09:45;;;;;;;;;;;6.10;99.90;;;;;;5023324;28;20142;-65
2023/03/29 07:12:11;;;;;;;;;;;6.10;99.90;;;;;;5030231;28;20014;-65
2023/03/29 07:14:36;;;;;;;;;;;6.40;99.90;;;;;;5000142;28;20042;-66
2023/03/29 07:17:03;;;;;;;;;;;6.40;99.90;;;;;;5024044;28;20592;-64
2023/03/29 07:19:29;;;;;;;;;;;6.60;99.90;;;;;;5025672;28;19985;-64
2023/03/29 07:21:55;;;;;;;;;;;6.60;99.90;;;;;;5027520;28;19921;-64
2023/03/29 07:24:21;;;;;;;;;;;6.60;99.90;;;;;;5005141;28;20314;-64
2023/03/29 07:26:47;;;;;;;;;;;6.90;99.90;;;;;;5004038;28;19966;-65
2023/03/29 07:29:13;;;;;;;;;;;6.80;99.90;;;;;;5020892;28;19931;-64
2023/03/29 07:31:40;;;;;;;;;;;6.80;99.90;;;;;;5024451;28;20425;-65
2023/03/29 07:34:09;;;;;;;;;;;6.70;99.90;;;;;;5056879;28;20566;-65
2023/03/29 07:36:38;;;;;;;;;;;6.80;99.90;;;;;;5053401;28;20046;-64
2023/03/29 07:39:05;;;;;;;;;;;7.10;99.90;;;;;;5025896;28;20078;-65
2023/03/29 07:41:30;;;;;;;;;;;7.10;99.90;;;;;;5026035;28;19952;-65
2023/03/29 07:43:56;;;;;;;;;;;7.20;99.90;;;;;;5021999;28;20487;-64
2023/03/29 07:46:22;;;;;;;;;;;7.10;99.90;;;;;;5025923;28;19921;-65
2023/03/29 07:48:47;;;;;;;;;;;7.30;99.90;;;;;;5025577;28;19928;-64
2023/03/29 07:51:13;;;;;;;;;;;7.40;99.90;;;;;;5023758;28;20108;-65
2023/03/29 07:53:39;;;;;;;;;;;7.60;99.90;;;;;;5021995;28;19925;-65
2023/03/29 07:56:04;;;;;;;;;;;7.60;99.90;;;;;;5023978;28;20055;-65
2023/03/29 07:58:30;;;;;;;;;;;7.70;99.90;;;;;;5021482;28;19921;-66
2023/03/29 08:00:58;;;;;;;;;;;7.70;99.90;;;;;;5022004;28;20286;-64
2023/03/29 08:03:24;;;;;;;;;;;7.70;99.90;;;;;;5020779;28;20578;-64
2023/03/29 08:05:50;;;;;;;;;;;7.80;99.90;;;;;;5021813;28;19921;-65
2023/03/29 08:08:16;;;;;;;;;;;7.60;99.90;;;;;;5024782;28;19924;-64
2023/03/29 08:10:41;;;;;;;;;;;7.60;99.90;;;;;;5027015;28;19931;-64
2023/03/29 08:13:08;;;;;;;;;;;7.60;99.90;;;;;;5025896;28;19989;-65
2023/03/29 08:15:36;;;;;;;;;;;7.60;99.90;;;;;;5020934;28;20557;-64
2023/03/29 08:18:02;;;;;;;;;;;7.80;99.90;;;;;;5006825;28;19929;-64
2023/03/29 08:20:27;;;;;;;;;;;7.70;99.90;;;;;;5018765;28;19917;-65
2023/03/29 08:22:53;;;;;;;;;;;7.60;99.90;;;;;;5021464;28;19991;-65
2023/03/29 08:25:19;;;;;;;;;;;7.80;99.90;;;;;;5024156;28;19925;-66
2023/03/29 08:27:44;;;;;;;;;;;8.00;99.90;;;;;;4997463;28;19978;-65
2023/03/29 08:30:10;;;;;;;;;;;8.20;99.90;;;;;;5024490;28;20183;-65
2023/03/29 08:32:36;;;;;;;;;;;8.10;17.30;;;;;;5003834;28;20283;-65
2023/03/29 08:35:03;;;;;;;;;;;8.20;99.90;;;;;;5031177;28;20209;-64
2023/03/29 08:37:29;;;;;;;;;;;8.20;83.00;;;;;;5025897;28;20429;-64
2023/03/29 08:39:56;;;;;;;;;;;8.30;1.00;;;;;;5001263;28;19932;-65
2023/03/29 08:42:21;;;;;;;;;;;8.40;99.90;;;;;;5020534;28;20392;-66
2023/03/29 08:44:50;;;;;;;;;;;8.40;99.90;;;;;;5046195;28;19925;-65
2023/03/29 08:47:16;;;;;;;;;;;8.40;99.90;;;;;;5022423;28;19920;-66
2023/03/29 08:49:43;;;;;;;;;;;8.70;1.00;;;;;;5023531;28;19933;-65
2023/03/29 08:52:35;;;;;;;;;;;8.60;25.90;;;;;;5026455;28;19925;-65
2023/03/29 08:55:02;;;;;;;;;;;8.70;1.00;;;;;;5021297;28;20139;-66
2023/03/29 08:57:34;;;;;;;;;;;8.80;99.90;;;;;;5048127;28;19931;-65
2023/03/29 09:00:01;;;;;;;;;;;8.90;1.00;;;;;;5020764;28;19925;-65
2023/03/29 09:02:29;;;;;;;;;;;9.00;66.50;;;;;;5024855;28;20105;-66
2023/03/29 09:05:19;;;;;;;;;;;9.10;59.60;;;;;;5024334;28;20019;-66
2023/03/29 09:07:44;;;;;;;;;;;9.20;52.70;;;;;;5003415;28;20456;-65
2023/03/29 09:10:14;;;;;;;;;;;9.30;12.80;;;;;;5018886;28;19925;-65
2023/03/29 09:12:51;;;;;;;;;;;9.40;1.00;;;;;;5032157;28;19974;-65
2023/03/29 09:15:25;;;;;;;;;;;9.40;1.00;;;;;;5023619;28;20055;-66
2023/03/29 09:17:58;;;;;;;;;;;9.50;1.00;;;;;;5017303;28;19971;-65
2023/03/29 09:20:26;;;;;;;;;;;9.60;1.00;;;;;;5034211;28;19921;-65
2023/03/29 09:23:05;;;;;;;;;;;9.60;1.00;;;;;;5032088;28;19925;-65
2023/03/29 09:25:34;;;;;;;;;;;9.50;1.00;;;;;;5019702;28;19917;-66
2023/03/29 09:28:04;;;;;;;;;;;9.50;1.00;;;;;;5005459;28;20216;-65
2023/03/29 09:30:40;;;;;;;;;;;9.60;1.00;;;;;;5020293;28;19932;-66
2023/03/29 09:33:09;;;;;;;;;;;9.70;99.90;;;;;;5022053;28;20426;-65
2023/03/29 09:35:36;;;;;;;;;;;9.80;99.90;;;;;;5020023;28;20043;-65
2023/03/29 09:38:03;;;;;;;;;;;9.70;1.00;;;;;;5023143;28;20046;-65
2023/03/29 09:40:37;;;;;;;;;;;9.70;1.00;;;;;;5060647;28;20357;-65
2023/03/29 09:43:03;;;;;;;;;;;9.80;18.00;;;;;;5002806;28;20743;-65
2023/03/29 09:45:29;;;;;;;;;;;9.80;1.00;;;;;;5021252;28;19929;-66
2023/03/29 09:48:14;;;;;;;;;;;9.80;1.00;;;;;;5020311;28;19979;-64
2023/03/29 09:50:45;;;;;;;;;;;10.00;1.00;;;;;;5019520;28;19940;-67
2023/03/29 09:53:12;;;;;;;;;;;10.10;99.90;;;;;;5022164;28;19921;-66
2023/03/29 09:55:39;;;;;;;;;;;10.20;99.90;;;;;;5018552;28;19921;-66
2023/03/29 09:58:14;;;;;;;;;;;10.30;99.90;;;;;;5016149;28;19960;-66
2023/03/29 10:00:39;;;;;;;;;;;10.40;99.90;;;;;;5021465;28;20456;-65
2023/03/29 10:03:05;;;;;;;;;;;10.50;99.90;;;;;;5020789;28;20063;-65
2023/03/29 10:05:33;;;;;;;;;;;10.60;99.90;;;;;;5018339;28;19921;-65
2023/03/29 10:07:59;;;;;;;;;;;10.80;1.00;;;;;;5001488;28;20121;-65
2023/03/29 10:10:31;;;;;;;;;;;10.90;1.00;;;;;;4987248;28;20681;-65
2023/03/29 10:13:03;;;;;;;;;;;10.90;99.90;;;;;;5017118;28;20252;-65
2023/03/29 10:15:29;;;;;;;;;;;11.00;99.90;;;;;;5002953;28;20115;-66
2023/03/29 10:17:59;;;;;;;;;;;11.10;99.90;;;;;;5017192;28;20399;-66
2023/03/29 10:20:25;;;;;;;;;;;11.00;99.90;;;;;;5018218;28;20330;-66
2023/03/29 10:22:55;;;;;;;;;;;10.90;99.90;;;;;;5017661;28;19921;-65
2023/03/29 10:25:24;;;;;;;;;;;10.90;99.90;;;;;;5019491;28;20005;-65
2023/03/29 10:27:50;;;;;;;;;;;10.80;99.90;;;;;;4995188;28;19920;-65
2023/03/29 10:30:18;;;;;;;;;;;10.90;99.90;;;;;;5026569;28;20125;-65
2023/03/29 10:32:44;;;;;;;;;;;10.90;99.90;;;;;;5005457;28;19951;-65
2023/03/29 10:35:22;;;;;;;;;;;10.90;99.90;;;;;;5049630;28;19952;-66
2023/03/29 10:37:49;;;;;;;;;;;10.70;99.90;;;;;;5025531;28;19932;-66
2023/03/29 10:40:25;;;;;;;;;;;10.70;99.90;;;;;;5021628;28;20408;-66
2023/03/29 10:42:52;;;;;;;;;;;10.80;99.90;;;;;;5030105;28;19917;-64
2023/03/29 10:45:38;;;;;;;;;;;10.70;99.90;;;;;;5018837;28;19978;-66
2023/03/29 10:48:07;;;;;;;;;;;10.90;1.00;;;;;;5015547;28;19921;-66
2023/03/29 10:50:35;;;;;;;;;;;10.70;99.90;;;;;;5006303;28;19932;-66
2023/03/29 10:53:02;;;;;;;;;;;10.80;1.00;;;;;;5018390;28;20016;-66
2023/03/29 10:55:32;;;;;;;;;;;10.70;99.90;;;;;;5023046;28;19921;-66
2023/03/29 10:58:19;;;;;;;;;;;10.60;99.90;;;;;;5026070;28;20433;-65
2023/03/29 11:00:53;;;;;;;;;;;10.60;99.90;;;;;;5023909;28;20068;-66
2023/03/29 11:03:21;;;;;;;;;;;10.40;1.00;;;;;;5021228;28;21136;-65
2023/03/29 11:05:53;;;;;;;;;;;10.40;99.90;;;;;;5054175;28;19925;-65
2023/03/29 11:08:18;;;;;;;;;;;10.60;99.90;;;;;;5022395;28;20085;-65
2023/03/29 11:10:44;;;;;;;;;;;10.60;99.90;;;;;;5022258;28;20028;-66
2023/03/29 11:13:13;;;;;;;;;;;10.80;99.90;;;;;;5025972;28;19993;-66
2023/03/29 11:15:44;;;;;;;;;;;10.80;99.90;;;;;;5003446;28;19928;-65
2023/03/29 11:18:18;;;;;;;;;;;10.90;1.00;;;;;;5007641;28;19925;-66
2023/03/29 11:20:49;;;;;;;;;;;10.80;99.90;;;;;;5021811;28;19920;-65
2023/03/29 11:23:30;;;;;;;;;;;11.00;99.90;;;;;;5021247;28;20315;-66
2023/03/29 11:26:01;;;;;;;;;;;11.10;99.90;;;;;;5024766;28;19920;-67
2023/03/29 11:28:37;;;;;;;;;;;11.20;99.90;;;;;;5016999;28;19920;-66
2023/03/29 11:31:03;;;;;;;;;;;11.50;99.90;;;;;;5018342;28;20004;-66
2023/03/29 11:33:39;;;;;;;;;;;11.80;99.90;;;;;;5035850;28;20571;-66
2023/03/29 11:36:11;;;;;;;;;;;11.90;99.90;;;;;;5024050;28;20393;-65
2023/03/29 11:39:00;;;;;;;;;;;12.00;99.90;;;;;;5017043;28;19921;-66
2023/03/29 11:41:29;;;;;;;;;;;12.20;99.90;;;;;;5009629;28;20016;-65
2023/03/29 11:44:04;;;;;;;;;;;12.40;99.90;;;;;;5017144;28;20188;-65
2023/03/29 11:46:34;;;;;;;;;;;12.40;99.90;;;;;;5048148;28;19925;-65
2023/03/29 11:49:03;;;;;;;;;;;12.80;99.90;;;;;;5005760;28;19927;-64
2023/03/29 11:51:31;;;;;;;;;;;13.10;99.90;;;;;;5005994;28;19929;-65
2023/03/29 11:54:06;;;;;;;;;;;13.10;99.90;;;;;;5037612;28;19986;-65
2023/03/29 11:56:38;;;;;;;;;;;13.10;99.90;;;;;;5023860;28;20183;-67
2023/03/29 11:59:12;;;;;;;;;;;13.10;99.90;;;;;;5020885;28;19916;-64
2023/03/29 12:02:04;;;;;;;;;;;13.30;99.90;;;;;;5053552;28;19983;-66
2023/03/29 12:04:35;;;;;;;;;;;13.30;99.90;;;;;;5015850;28;20326;-65
2023/03/29 12:07:05;;;;;;;;;;;13.20;99.90;;;;;;5024754;28;20175;-66
2023/03/29 12:09:43;;;;;;;;;;;13.40;99.90;;;;;;5055679;28;19995;-65
2023/03/29 12:12:27;;;;;;;;;;;13.20;99.90;;;;;;5024689;28;19925;-66
2023/03/29 12:14:56;;;;;;;;;;;13.20;99.90;;;;;;5023889;28;20440;-65
2023/03/29 12:17:45;;;;;;;;;;;13.10;99.90;;;;;;5023588;28;19924;-65
2023/03/29 12:20:22;;;;;;;;;;;12.80;99.90;;;;;;5012048;28;19921;-64
2023/03/29 12:22:49;;;;;;;;;;;12.70;99.90;;;;;;5019551;28;20359;-64
2023/03/29 12:25:17;;;;;;;;;;;12.60;99.90;;;;;;5021187;28;19944;-64
2023/03/29 12:27:51;;;;;;;;;;;12.70;99.90;;;;;;5005946;28;19924;-66
2023/03/29 12:30:20;;;;;;;;;;;12.70;99.90;;;;;;5029698;28;19924;-65
2023/03/29 12:33:00;;;;;;;;;;;12.70;99.90;;;;;;5054815;28;20528;-66
2023/03/29 12:35:37;;;;;;;;;;;12.70;99.90;;;;;;5021341;28;19938;-65
2023/03/29 12:38:08;;;;;;;;;;;12.70;99.90;;;;;;5018266;28;20795;-65
2023/03/29 12:40:38;;;;;;;;;;;12.80;99.90;;;;;;5018002;28;19927;-64
2023/03/29 12:43:07;;;;;;;;;;;12.80;99.90;;;;;;5017590;28;20139;-64
2023/03/29 12:45:37;;;;;;;;;;;13.00;99.90;;;;;;5014883;28;20220;-65
2023/03/29 12:48:03;;;;;;;;;;;13.10;99.90;;;;;;5047877;28;20217;-65
2023/03/29 12:50:37;;;;;;;;;;;13.20;99.90;;;;;;5019462;28;19928;-65
2023/03/29 12:53:04;;;;;;;;;;;13.30;99.90;;;;;;5015814;28;20385;-64
2023/03/29 12:55:46;;;;;;;;;;;13.30;99.90;;;;;;5047073;28;19960;-65
2023/03/29 12:58:26;;;;;;;;;;;13.40;99.90;;;;;;5013350;28;20460;-64
2023/03/29 13:01:02;;;;;;;;;;;13.60;99.90;;;;;;5015031;28;19921;-65
2023/03/29 13:03:46;;;;;;;;;;;13.80;99.90;;;;;;5018301;28;20417;-64
2023/03/29 13:06:12;;;;;;;;;;;13.90;99.90;;;;;;5019360;28;19944;-65
2023/03/29 13:08:39;;;;;;;;;;;13.90;99.90;;;;;;5020206;28;19921;-65
2023/03/29 13:11:06;;;;;;;;;;;13.70;99.90;;;;;;5020030;28;19928;-65
2023/03/29 13:13:36;;;;;;;;;;;13.70;99.90;;;;;;5021198;28;20075;-65
2023/03/29 13:16:12;;;;;;;;;;;13.70;99.90;;;;;;4998452;28;20316;-65
2023/03/29 13:18:41;;;;;;;;;;;13.70;99.90;;;;;;5019393;28;20324;-65
2023/03/29 13:21:39;;;;;;;;;;;13.70;99.90;;;;;;5021005;28;19920;-65
2023/03/29 13:24:18;;;;;;;;;;;13.70;99.90;;;;;;4993881;28;20054;-66
2023/03/29 13:27:08;;;;;;;;;;;13.80;99.90;;;;;;5018546;28;19920;-65
2023/03/29 13:29:53;;;;;;;;;;;13.70;99.90;;;;;;5022958;28;19925;-64
2023/03/29 13:32:25;;;;;;;;;;;13.80;99.90;;;;;;5021401;28;20857;-65
2023/03/29 13:35:03;;;;;;;;;;;13.80;99.90;;;;;;5051501;28;19976;-66
2023/03/29 13:37:50;;;;;;;;;;;13.90;99.90;;;;;;5020278;28;20063;-65
2023/03/29 13:40:34;;;;;;;;;;;14.00;99.90;;;;;;5021055;28;19920;-65
2023/03/29 13:43:18;;;;;;;;;;;13.80;99.90;;;;;;5020675;28;19928;-64
2023/03/29 13:46:03;;;;;;;;;;;13.80;99.90;;;;;;5020652;28;20410;-65
2023/03/29 13:48:36;;;;;;;;;;;13.80;99.90;;;;;;4998366;28;19921;-64
2023/03/29 13:51:17;;;;;;;;;;;13.70;99.90;;;;;;5003034;28;20602;-67
2023/03/29 13:53:54;;;;;;;;;;;13.50;99.90;;;;;;5017077;28;19925;-64
2023/03/29 13:56:23;;;;;;;;;;;13.60;99.90;;;;;;5036930;28;20312;-65
2023/03/29 13:58:56;;;;;;;;;;;13.70;99.90;;;;;;5035637;28;19924;-65
2023/03/29 14:01:26;;;;;;;;;;;13.70;99.90;;;;;;5017176;28;20575;-65
2023/03/29 14:03:53;;;;;;;;;;;13.70;99.90;;;;;;5035604;28;19920;-64
2023/03/29 14:06:28;;;;;;;;;;;13.60;99.90;;;;;;5022886;28;19974;-65
2023/03/29 14:08:54;;;;;;;;;;;13.60;99.90;;;;;;5024942;28;19980;-65
2023/03/29 14:11:27;;;;;;;;;;;13.60;99.90;;;;;;5025614;28;19942;-64
2023/03/29 14:13:56;;;;;;;;;;;13.60;99.90;;;;;;5029984;28;20377;-65
2023/03/29 14:16:27;;;;;;;;;;;13.70;99.90;;;;;;5026822;28;20019;-66
2023/03/29 14:18:56;;;;;;;;;;;13.80;99.90;;;;;;5006235;28;19921;-66
2023/03/29 14:21:23;;;;;;;;;;;13.80;99.90;;;;;;5023790;28;20125;-66
2023/03/29 14:23:53;;;;;;;;;;;13.90;99.90;;;;;;5010224;28;20614;-65
2023/03/29 14:26:20;;;;;;;;;;;13.90;99.90;;;;;;5023011;28;19971;-65
2023/03/29 14:28:50;;;;;;;;;;;14.10;99.90;;;;;;5019385;28;19932;-64
2023/03/29 14:31:19;;;;;;;;;;;14.40;99.90;;;;;;5026039;28;19964;-65
2023/03/29 14:33:50;;;;;;;;;;;14.50;99.90;;;;;;5003218;28;20539;-65
2023/03/29 14:36:16;;;;;;;;;;;14.50;99.90;;;;;;5030250;28;19928;-65
2023/03/29 14:38:47;;;;;;;;;;;14.40;99.90;;;;;;5003807;28;19947;-64
2023/03/29 14:41:12;;;;;;;;;;;14.40;99.90;;;;;;5016759;28;19967;-65